Terminal Aerodrome Forecast
Issued by NWS Wilmington, OH

Current Version | Previous Version | Graphics & Text | Print | Product List | Glossary On
Versions: 1 2 3 4 5 6 7 8 9 10 11 12 13 14 15 16 17 18 19
057
FTUS41 KILN 232340 AAB
TAFILN
TAF AMD
KILN 232340Z 2400/2424 35009KT 5SM BR VCSH OVC004
     FM240300 32007KT 5SM -DZ BR OVC004
     FM241300 31009KT 5SM BR OVC007
     FM241700 29009KT P6SM OVC012
     FM242100 26007KT P6SM BKN022=

USA.gov is the U.S. government's official web portal to all federal, state and local government web resources and services.